Time;durP1;ratioP1;P1;durP2;ratioP2;P2;SDS_P1;SDS_P2;PMS_P1;PMS_P2;Temp;Humidity;BMP_temperature;BMP_pressure;BME280_temperature;BME280_humidity;BME280_pressure;Samples;Min_cycle;Max_cycle;Signal;HPM_P1;HPM_P2
2021/05/25 00:00:55;;;;;;;7.10;2.70;;;;;;;-143.98;100.00;68091.63;6250814;22;20305;-83
2021/05/25 00:03:22;;;;;;;3.30;2.42;;;;;;;-143.98;100.00;68091.63;6247579;23;20024;-83
2021/05/25 00:05:49;;;;;;;6.75;2.95;;;;;;;-143.98;100.00;68091.63;6260886;23;20024;-84
2021/05/25 00:08:20;;;;;;;4.75;2.63;;;;;;;-143.98;100.00;68091.63;6230036;23;20024;-84
2021/05/25 00:10:46;;;;;;;11.60;2.67;;;;;;;-143.98;100.00;68091.63;6249921;23;20027;-84
2021/05/25 00:13:13;;;;;;;5.47;2.30;;;;;;;-143.98;100.00;68091.63;6225505;23;20099;-85
2021/05/25 00:15:43;;;;;;;5.32;3.05;;;;;;;-143.98;100.00;68091.63;6223086;23;20032;-84
2021/05/25 00:18:22;;;;;;;7.45;3.58;;;;;;;-143.98;100.00;68091.63;6223161;23;20028;-85
2021/05/25 00:20:49;;;;;;;7.90;2.83;;;;;;;-143.98;100.00;68091.63;6222478;23;20418;-85
2021/05/25 00:23:15;;;;;;;7.93;3.08;;;;;;;-143.98;100.00;68091.63;6259097;22;20026;-84
2021/05/25 00:25:42;;;;;;;5.35;2.78;;;;;;;-143.98;100.00;68091.63;6244082;22;20016;-84
2021/05/25 00:28:09;;;;;;;3.90;2.92;;;;;;;-143.98;100.00;68091.63;6231712;23;20092;-85
2021/05/25 00:30:43;;;;;;;4.75;2.67;;;;;;;-143.98;100.00;68091.63;6249732;23;20028;-84
2021/05/25 00:33:10;;;;;;;6.05;3.15;;;;;;;-143.98;100.00;68091.63;6247376;23;20082;-85
2021/05/25 00:35:40;;;;;;;6.13;3.00;;;;;;;-143.98;100.00;68091.63;6223479;23;20074;-85
2021/05/25 00:38:11;;;;;;;3.22;2.92;;;;;;;-143.98;100.00;68091.63;6222257;23;20042;-85
2021/05/25 00:40:40;;;;;;;4.90;2.75;;;;;;;-143.98;100.00;68091.63;6248021;23;20066;-84
2021/05/25 00:43:08;;;;;;;4.65;2.85;;;;;;;-143.98;100.00;68091.63;6223488;23;20035;-84
2021/05/25 00:45:35;;;;;;;9.93;3.30;;;;;;;-143.98;100.00;68091.63;6223345;23;20035;-85
2021/05/25 00:48:02;;;;;;;4.40;3.05;;;;;;;-143.98;100.00;68091.63;6223379;23;20029;-84
2021/05/25 00:50:30;;;;;;;5.13;2.88;;;;;;;-143.98;100.00;68091.63;6225255;23;20035;-84
2021/05/25 00:53:04;;;;;;;6.40;3.03;;;;;;;-143.98;100.00;68091.63;6255839;23;20456;-84
2021/05/25 00:55:38;;;;;;;8.68;3.15;;;;;;;-143.98;100.00;68091.63;6237552;23;20043;-84
2021/05/25 00:58:10;;;;;;;5.93;3.22;;;;;;;-143.98;100.00;68091.63;6235600;23;20042;-84
2021/05/25 01:00:39;;;;;;;5.22;2.90;;;;;;;-143.98;100.00;68091.63;6224009;23;20336;-84
2021/05/25 01:03:10;;;;;;;5.60;3.20;;;;;;;-143.98;100.00;68091.63;6248525;23;20132;-84
2021/05/25 01:05:39;;;;;;;5.47;2.80;;;;;;;-143.98;100.00;68091.63;6248017;23;20024;-84
2021/05/25 01:08:12;;;;;;;5.45;3.38;;;;;;;-143.98;100.00;68091.63;6222305;23;20024;-84
2021/05/25 01:10:44;;;;;;;5.78;2.90;;;;;;;-143.98;100.00;68091.63;6224330;23;20098;-84
2021/05/25 01:13:18;;;;;;;3.72;3.25;;;;;;;-143.98;100.00;68091.63;6248196;23;20031;-83
2021/05/25 01:15:46;;;;;;;5.20;2.90;;;;;;;-143.98;100.00;68091.63;6224998;23;20024;-84
2021/05/25 01:18:17;;;;;;;5.05;3.22;;;;;;;-143.98;100.00;68091.63;6223752;23;20031;-83
2021/05/25 01:20:47;;;;;;;5.72;3.33;;;;;;;-143.98;100.00;68091.63;6249168;23;20036;-84
2021/05/25 01:23:18;;;;;;;3.33;2.85;;;;;;;-143.98;100.00;68091.63;6249740;23;20115;-84
2021/05/25 01:25:48;;;;;;;6.22;2.92;;;;;;;-143.98;100.00;68091.63;6249686;23;20314;-84
2021/05/25 01:28:27;;;;;;;4.25;2.78;;;;;;;-143.98;100.00;68091.63;6250479;22;20084;-84
2021/05/25 01:30:54;;;;;;;4.88;2.75;;;;;;;-143.98;100.00;68091.63;6248568;23;20028;-84
2021/05/25 01:33:24;;;;;;;3.33;2.53;;;;;;;-143.98;100.00;68091.63;6249504;23;20025;-84
2021/05/25 01:35:50;;;;;;;3.85;2.38;;;;;;;-143.98;100.00;68091.63;6249610;22;20016;-84
2021/05/25 01:38:21;;;;;;;4.65;2.10;;;;;;;-143.98;100.00;68091.63;6232740;23;20032;-84
2021/05/25 01:40:57;;;;;;;4.80;2.30;;;;;;;-143.98;100.00;68091.63;6229918;23;20086;-84
2021/05/25 01:43:25;;;;;;;2.38;2.15;;;;;;;-143.98;100.00;68091.63;6224281;23;20074;-84
2021/05/25 01:45:52;;;;;;;5.72;2.45;;;;;;;-143.98;100.00;68091.63;6225176;23;20187;-85
2021/05/25 01:48:19;;;;;;;4.45;2.38;;;;;;;-143.98;100.00;68091.63;6250135;23;20066;-84
2021/05/25 01:50:47;;;;;;;3.10;2.47;;;;;;;-143.98;100.00;68091.63;6250252;22;20028;-84
2021/05/25 01:53:25;;;;;;;5.88;2.60;;;;;;;-143.98;100.00;68091.63;6223643;23;20028;-85
2021/05/25 01:55:54;;;;;;;4.35;2.70;;;;;;;-143.98;100.00;68091.63;6223239;23;20072;-84
2021/05/25 01:58:39;;;;;;;3.13;2.13;;;;;;;-143.98;100.00;68091.63;6249859;23;20035;-84
2021/05/25 02:01:09;;;;;;;3.22;2.17;;;;;;;-143.98;100.00;68091.63;6250467;23;20028;-84
2021/05/25 02:03:40;;;;;;;3.72;2.20;;;;;;;-143.98;100.00;68091.63;6228255;23;20103;-83
2021/05/25 02:06:09;;;;;;;2.55;2.22;;;;;;;-143.98;100.00;68091.63;6227025;23;20028;-84
2021/05/25 02:08:39;;;;;;;2.90;2.15;;;;;;;-143.98;100.00;68091.63;6222824;23;20036;-84
2021/05/25 02:11:09;;;;;;;2.45;1.80;;;;;;;-143.98;100.00;68091.63;6223965;23;20365;-84
2021/05/25 02:13:39;;;;;;;3.58;1.88;;;;;;;-143.98;100.00;68091.63;6250413;23;20298;-84
2021/05/25 02:16:11;;;;;;;4.63;1.55;;;;;;;-143.98;100.00;68091.63;6248681;23;20025;-84
2021/05/25 02:18:44;;;;;;;2.33;1.85;;;;;;;-143.98;100.00;68091.63;6248227;23;20421;-84
2021/05/25 02:21:21;;;;;;;3.03;2.30;;;;;;;-143.98;100.00;68091.63;6225410;23;20057;-85
2021/05/25 02:23:49;;;;;;;4.13;2.20;;;;;;;-143.98;100.00;68091.63;6225146;23;20087;-85
2021/05/25 02:26:17;;;;;;;5.10;2.20;;;;;;;-143.98;100.00;68091.63;6224628;23;20039;-85
2021/05/25 02:28:50;;;;;;;3.22;2.40;;;;;;;-143.98;100.00;68091.63;6223344;23;20402;-84
2021/05/25 02:31:16;;;;;;;2.83;2.42;;;;;;;-143.98;100.00;68091.63;6246621;23;20031;-84
2021/05/25 02:33:43;;;;;;;4.15;2.47;;;;;;;-143.98;100.00;68091.63;6245918;23;20028;-84
2021/05/25 02:36:10;;;;;;;4.38;3.13;;;;;;;-143.98;100.00;68091.63;6220056;23;20410;-81
2021/05/25 02:38:37;;;;;;;3.00;2.50;;;;;;;-143.98;100.00;68091.63;6246375;23;20047;-80
2021/05/25 02:41:04;;;;;;;3.38;2.53;;;;;;;-143.98;100.00;68091.63;6244492;23;20038;-79
2021/05/25 02:43:31;;;;;;;3.50;3.15;;;;;;;-143.98;100.00;68091.63;6219445;23;20390;-81
2021/05/25 02:45:58;;;;;;;4.40;2.78;;;;;;;-143.98;100.00;68091.63;6245030;23;20397;-80
2021/05/25 02:48:26;;;;;;;6.55;3.38;;;;;;;-143.98;100.00;68091.63;6220637;23;20114;-80
2021/05/25 02:50:53;;;;;;;5.32;3.42;;;;;;;-143.98;100.00;68091.63;6218521;23;20066;-80
2021/05/25 02:53:20;;;;;;;4.00;2.95;;;;;;;-143.98;100.00;68091.63;6245351;22;20028;-80
2021/05/25 02:55:47;;;;;;;3.33;2.85;;;;;;;-143.98;100.00;68091.63;6244538;23;20035;-81
2021/05/25 02:58:18;;;;;;;3.78;3.03;;;;;;;-143.98;100.00;68091.63;6243294;22;20028;-81
2021/05/25 03:00:48;;;;;;;4.35;2.75;;;;;;;-143.98;100.00;68091.63;6243734;23;20086;-81
2021/05/25 03:03:28;;;;;;;4.95;2.83;;;;;;;-143.98;100.00;68091.63;6257683;23;20051;-80
2021/05/25 03:05:55;;;;;;;3.67;2.70;;;;;;;-143.98;100.00;68091.63;6264185;23;20020;-80
2021/05/25 03:08:22;;;;;;;3.78;2.83;;;;;;;-143.98;100.00;68091.63;6262593;23;20028;-81
2021/05/25 03:10:49;;;;;;;4.22;3.15;;;;;;;-143.98;100.00;68091.63;6260632;23;20333;-81
2021/05/25 03:13:17;;;;;;;8.65;3.40;;;;;;;-143.98;100.00;68091.63;6251308;22;20027;-81
2021/05/25 03:15:59;;;;;;;6.68;3.53;;;;;;;-143.98;100.00;68091.63;6198308;23;20024;-81
2021/05/25 03:18:26;;;;;;;4.43;3.65;;;;;;;-143.98;100.00;68091.63;6222322;23;20036;-82
2021/05/25 03:20:54;;;;;;;5.88;4.05;;;;;;;-143.98;100.00;68091.63;6219746;23;20028;-83
2021/05/25 03:23:24;;;;;;;6.65;4.20;;;;;;;-143.98;100.00;68091.63;6247330;22;20114;-82
2021/05/25 03:25:56;;;;;;;5.65;4.28;;;;;;;-143.98;100.00;68091.63;6256226;23;20076;-82
2021/05/25 03:28:23;;;;;;;6.05;4.88;;;;;;;-143.98;100.00;68091.63;6257575;23;20484;-82
2021/05/25 03:30:54;;;;;;;7.50;4.63;;;;;;;-143.98;100.00;68091.63;6232283;23;20093;-82
2021/05/25 03:33:24;;;;;;;7.70;4.88;;;;;;;-143.98;100.00;68091.63;6252090;23;20051;-82
2021/05/25 03:35:51;;;;;;;5.78;4.95;;;;;;;-143.98;100.00;68091.63;6267334;22;20076;-82
2021/05/25 03:38:19;;;;;;;7.85;5.20;;;;;;;-143.98;100.00;68091.63;6267218;22;20048;-84
2021/05/25 03:40:48;;;;;;;7.60;4.95;;;;;;;-143.98;100.00;68091.63;6263946;22;20024;-83
2021/05/25 03:43:21;;;;;;;9.45;5.10;;;;;;;-143.98;100.00;68091.63;6261737;23;20024;-83
2021/05/25 03:45:50;;;;;;;8.02;5.50;;;;;;;-143.98;100.00;68091.63;6260593;23;20016;-82
2021/05/25 03:48:17;;;;;;;8.95;5.35;;;;;;;-143.98;100.00;68091.63;6229105;23;20393;-83
2021/05/25 03:50:50;;;;;;;8.38;5.38;;;;;;;-143.98;100.00;68091.63;6224443;23;20086;-83
2021/05/25 03:53:20;;;;;;;7.57;5.50;;;;;;;-143.98;100.00;68091.63;6249366;23;20032;-83
2021/05/25 03:55:52;;;;;;;8.10;5.57;;;;;;;-143.98;100.00;68091.63;6250444;22;20056;-83
2021/05/25 04:01:09;;;;;;;8.15;5.20;;;;;;;-143.98;100.00;68091.63;6248231;22;20024;-83
2021/05/25 04:03:39;;;;;;;6.47;5.28;;;;;;;-143.98;100.00;68091.63;6248647;22;20024;-83
2021/05/25 04:06:06;;;;;;;6.70;5.03;;;;;;;-143.98;100.00;68091.63;6249885;23;20024;-82
2021/05/25 04:08:32;;;;;;;7.07;5.20;;;;;;;-143.98;100.00;68091.63;6249034;23;20038;-83
2021/05/25 04:11:01;;;;;;;9.75;5.57;;;;;;;-143.98;100.00;68091.63;6247394;23;20545;-82
2021/05/25 04:13:29;;;;;;;8.15;5.38;;;;;;;-143.98;100.00;68091.63;6248032;23;20365;-82
2021/05/25 04:15:56;;;;;;;10.73;6.38;;;;;;;-143.98;100.00;68091.63;6223793;23;20036;-82
2021/05/25 04:18:22;;;;;;;11.88;6.18;;;;;;;-143.98;100.00;68091.63;6251590;23;20028;-84
2021/05/25 04:20:49;;;;;;;10.10;5.93;;;;;;;-143.98;100.00;68091.63;6251879;23;20131;-84
2021/05/25 04:23:23;;;;;;;7.68;5.43;;;;;;;-143.98;100.00;68091.63;6248942;23;20109;-83
2021/05/25 04:25:51;;;;;;;8.27;5.72;;;;;;;-143.98;100.00;68091.63;6249475;23;20070;-83
2021/05/25 04:28:18;;;;;;;10.57;6.57;;;;;;;-143.98;100.00;68091.63;6247511;23;20090;-83
2021/05/25 04:30:52;;;;;;;6.72;6.03;;;;;;;-143.98;100.00;68091.63;6247077;23;20028;-82
2021/05/25 04:33:20;;;;;;;9.50;6.15;;;;;;;-143.98;100.00;68091.63;6245004;23;20039;-83
2021/05/25 04:35:54;;;;;;;6.85;6.05;;;;;;;-143.98;100.00;68091.63;6221718;23;20139;-82
2021/05/25 04:38:20;;;;;;;10.10;7.13;;;;;;;-143.98;100.00;68091.63;6245680;23;20024;-82
2021/05/25 04:40:48;;;;;;;8.65;6.22;;;;;;;-143.98;100.00;68091.63;6246406;23;20028;-82
2021/05/25 04:43:16;;;;;;;11.48;7.07;;;;;;;-143.98;100.00;68091.63;6224464;23;20209;-82
2021/05/25 04:45:47;;;;;;;10.02;7.25;;;;;;;-143.98;100.00;68091.63;6257115;23;20101;-82
2021/05/25 04:48:20;;;;;;;11.13;6.88;;;;;;;-143.98;100.00;68091.63;6250562;22;20455;-82
2021/05/25 04:50:53;;;;;;;11.35;7.13;;;;;;;-143.98;100.00;68091.63;6245074;23;20028;-82
2021/05/25 04:53:20;;;;;;;9.45;7.93;;;;;;;-143.98;100.00;68091.63;6244605;22;20363;-83
2021/05/25 04:55:47;;;;;;;9.25;7.00;;;;;;;-143.98;100.00;68091.63;6246253;23;20063;-82
2021/05/25 04:58:14;;;;;;;10.60;8.07;;;;;;;-143.98;100.00;68091.63;6220095;23;20054;-83
2021/05/25 05:00:40;;;;;;;10.90;8.43;;;;;;;-143.98;100.00;68091.63;6244721;23;20034;-82
2021/05/25 05:03:11;;;;;;;9.15;7.85;;;;;;;-143.98;100.00;68091.63;6243098;22;20030;-83
2021/05/25 05:05:41;;;;;;;14.30;8.32;;;;;;;-143.98;100.00;68091.63;6242520;23;20024;-83
2021/05/25 05:08:08;;;;;;;9.65;8.38;;;;;;;-143.98;100.00;68091.63;6215816;23;20028;-82
2021/05/25 05:10:39;;;;;;;12.25;9.15;;;;;;;-143.98;100.00;68091.63;6242796;23;20249;-81
2021/05/25 05:13:09;;;;;;;17.75;9.95;;;;;;;-143.98;100.00;68091.63;6243399;23;20028;-81
2021/05/25 05:15:36;;;;;;;11.05;8.30;;;;;;;-143.98;100.00;68091.63;6242777;23;20024;-82
2021/05/25 05:18:03;;;;;;;10.25;9.07;;;;;;;-143.98;100.00;68091.63;6216719;23;20035;-82
2021/05/25 05:20:33;;;;;;;12.55;9.65;;;;;;;-143.98;100.00;68091.63;6243495;23;20028;-82
2021/05/25 05:23:00;;;;;;;10.70;8.82;;;;;;;-143.98;100.00;68091.63;6243688;22;20028;-81
2021/05/25 05:25:27;;;;;;;12.75;9.20;;;;;;;-143.98;100.00;68091.63;6241458;23;20055;-84
2021/05/25 05:27:54;;;;;;;12.10;9.02;;;;;;;-143.98;100.00;68091.63;6241133;23;20083;-81
2021/05/25 05:30:21;;;;;;;11.43;7.70;;;;;;;-143.98;100.00;68091.63;6241991;23;20023;-82
2021/05/25 05:32:49;;;;;;;11.00;8.32;;;;;;;-143.98;100.00;68091.63;6218556;23;20028;-81
2021/05/25 05:35:20;;;;;;;8.02;6.50;;;;;;;-143.98;100.00;68091.63;6242711;23;20094;-83
2021/05/25 05:37:49;;;;;;;9.40;7.40;;;;;;;-143.98;100.00;68091.63;6244161;23;20361;-81
2021/05/25 05:40:19;;;;;;;8.95;7.57;;;;;;;-143.98;100.00;68091.63;6244356;23;20139;-84
2021/05/25 05:43:10;;;;;;;10.20;5.78;;;;;;;-143.98;100.00;68091.63;6242570;22;20101;-83
2021/05/25 05:45:38;;;;;;;6.82;6.13;;;;;;;-143.98;100.00;68091.63;6239938;23;20038;-82
2021/05/25 05:48:05;;;;;;;8.25;6.28;;;;;;;-143.98;100.00;68091.63;6240604;23;20421;-83
2021/05/25 05:50:32;;;;;;;7.70;6.32;;;;;;;-143.98;100.00;68091.63;6215759;23;20052;-82
2021/05/25 05:53:00;;;;;;;6.05;5.32;;;;;;;-143.98;100.00;68091.63;6241297;23;20028;-82
2021/05/25 05:55:34;;;;;;;7.93;5.80;;;;;;;-143.98;100.00;68091.63;6242065;23;20039;-83
2021/05/25 05:58:04;;;;;;;6.95;5.80;;;;;;;-143.98;100.00;68091.63;6239221;23;20028;-83
2021/05/25 06:00:33;;;;;;;9.07;6.93;;;;;;;-143.98;100.00;68091.63;6242399;22;20115;-84
2021/05/25 06:03:00;;;;;;;8.93;6.82;;;;;;;-143.98;100.00;68091.63;6242004;22;20263;-83
2021/05/25 06:05:27;;;;;;;8.38;6.07;;;;;;;-143.98;100.00;68091.63;6214729;23;20097;-83
2021/05/25 06:07:54;;;;;;;10.75;6.63;;;;;;;-143.98;100.00;68091.63;6241903;23;20360;-84
2021/05/25 06:10:22;;;;;;;8.70;6.40;;;;;;;-143.98;100.00;68091.63;6245714;23;20031;-83
2021/05/25 06:12:49;;;;;;;7.57;5.97;;;;;;;-143.98;100.00;68091.63;6239066;23;20027;-82
2021/05/25 06:15:19;;;;;;;8.20;6.18;;;;;;;-143.98;100.00;68091.63;6215655;23;20028;-82
2021/05/25 06:17:46;;;;;;;10.93;7.15;;;;;;;-143.98;100.00;68091.63;6215518;23;20083;-83
2021/05/25 06:20:22;;;;;;;10.70;7.72;;;;;;;-143.98;100.00;68091.63;6216167;23;20039;-82
2021/05/25 06:22:53;;;;;;;12.85;8.02;;;;;;;-143.98;100.00;68091.63;6240926;23;20031;-83
2021/05/25 06:25:22;;;;;;;9.38;7.65;;;;;;;-143.98;100.00;68091.63;6240554;22;20028;-83
2021/05/25 06:27:49;;;;;;;13.23;8.27;;;;;;;-143.98;100.00;68091.63;6215435;23;20294;-83
2021/05/25 06:30:17;;;;;;;11.88;7.93;;;;;;;-143.98;100.00;68091.63;6215981;23;20028;-83
2021/05/25 06:32:44;;;;;;;12.80;7.30;;;;;;;-143.98;100.00;68091.63;6215331;23;20084;-82
2021/05/25 06:35:11;;;;;;;12.70;7.93;;;;;;;-143.98;100.00;68091.63;6216189;23;20028;-83
2021/05/25 06:37:38;;;;;;;10.38;7.32;;;;;;;-143.98;100.00;68091.63;6240388;23;20035;-82
2021/05/25 06:40:06;;;;;;;9.35;7.13;;;;;;;-143.98;100.00;68091.63;6244167;22;20036;-83
2021/05/25 06:42:33;;;;;;;11.85;8.00;;;;;;;-143.98;100.00;68091.63;6247346;22;20047;-83
2021/05/25 06:45:00;;;;;;;9.55;7.35;;;;;;;-143.98;100.00;68091.63;6237708;22;20071;-82
2021/05/25 06:47:49;;;;;;;10.05;7.32;;;;;;;-143.98;100.00;68091.63;6268485;22;20079;-81
2021/05/25 06:50:16;;;;;;;11.80;7.93;;;;;;;-143.98;100.00;68091.63;6249350;23;20139;-82
2021/05/25 06:52:43;;;;;;;11.02;7.05;;;;;;;-143.98;100.00;68091.63;6252035;23;20052;-82
2021/05/25 06:55:12;;;;;;;8.65;6.90;;;;;;;-143.98;100.00;68091.63;6219526;23;20394;-83
2021/05/25 06:57:42;;;;;;;11.48;7.45;;;;;;;-143.98;100.00;68091.63;6240185;23;20024;-83
2021/05/25 07:00:12;;;;;;;11.90;7.22;;;;;;;-143.98;100.00;68091.63;6214816;23;20032;-83
2021/05/25 07:02:56;;;;;;;10.85;7.35;;;;;;;-143.98;100.00;68091.63;6237596;23;20079;-84
2021/05/25 07:05:28;;;;;;;14.10;8.35;;;;;;;-143.98;100.00;68091.63;6241419;23;20034;-84
2021/05/25 07:07:55;;;;;;;11.30;7.40;;;;;;;-143.98;100.00;68091.63;6216958;23;20032;-84
2021/05/25 07:10:22;;;;;;;11.10;7.15;;;;;;;-143.98;100.00;68091.63;6219954;23;20039;-83
2021/05/25 07:12:52;;;;;;;10.82;8.02;;;;;;;-143.98;100.00;68091.63;6247236;23;20025;-83
2021/05/25 07:15:20;;;;;;;9.07;6.97;;;;;;;-143.98;100.00;68091.63;6241879;23;20302;-84
2021/05/25 07:17:56;;;;;;;12.93;7.45;;;;;;;-143.98;100.00;68091.63;6227104;23;20037;-84
2021/05/25 07:20:24;;;;;;;10.65;6.53;;;;;;;-143.98;100.00;68091.63;6218242;23;20047;-85
2021/05/25 07:22:53;;;;;;;12.65;6.50;;;;;;;-143.98;100.00;68091.63;6241275;22;20111;-85
2021/05/25 07:25:22;;;;;;;9.90;7.03;;;;;;;-143.98;100.00;68091.63;6240153;23;20035;-84
2021/05/25 07:27:49;;;;;;;9.00;5.70;;;;;;;-143.98;100.00;68091.63;6240486;23;20021;-84
2021/05/25 07:30:17;;;;;;;10.10;4.93;;;;;;;-143.98;100.00;68091.63;6242096;23;20093;-84
2021/05/25 07:32:45;;;;;;;11.13;5.45;;;;;;;-143.98;100.00;68091.63;6244460;23;20044;-84
2021/05/25 07:35:13;;;;;;;9.40;5.22;;;;;;;-143.98;100.00;68091.63;6222788;23;20114;-86
2021/05/25 07:37:43;;;;;;;7.93;4.82;;;;;;;-143.98;100.00;68091.63;6251752;22;20039;-86
2021/05/25 07:40:11;;;;;;;11.45;3.85;;;;;;;-143.98;100.00;68091.63;6246404;23;20028;-86
2021/05/25 07:42:42;;;;;;;9.65;3.20;;;;;;;-143.98;100.00;68091.63;6219406;23;20024;-86
2021/05/25 07:45:11;;;;;;;7.50;3.88;;;;;;;-143.98;100.00;68091.63;6243833;22;20024;-86
2021/05/25 07:47:38;;;;;;;6.65;2.83;;;;;;;-143.98;100.00;68091.63;6249922;23;20362;-85
2021/05/25 07:50:13;;;;;;;9.35;3.35;;;;;;;-143.98;100.00;68091.63;6225508;23;20028;-85
2021/05/25 07:52:49;;;;;;;6.43;2.90;;;;;;;-143.98;100.00;68091.63;6246724;22;20039;-85
2021/05/25 07:55:21;;;;;;;13.57;2.87;;;;;;;-143.98;100.00;68091.63;6245575;23;20431;-86
2021/05/25 07:57:48;;;;;;;6.10;2.80;;;;;;;-143.98;100.00;68091.63;6242303;23;20055;-86
2021/05/25 08:00:21;;;;;;;6.15;2.80;;;;;;;-143.98;100.00;68091.63;6248888;22;20433;-86
2021/05/25 08:02:48;;;;;;;7.40;3.10;;;;;;;-143.98;100.00;68091.63;6217267;23;20024;-86
2021/05/25 08:05:22;;;;;;;12.90;3.28;;;;;;;-143.98;100.00;68091.63;6245156;23;20028;-86
2021/05/25 08:07:51;;;;;;;8.30;2.83;;;;;;;-143.98;100.00;68091.63;6224400;23;20078;-87
2021/05/25 08:10:25;;;;;;;8.02;1.77;;;;;;;-143.98;100.00;68091.63;6220901;23;20132;-87
2021/05/25 08:12:58;;;;;;;9.25;2.10;;;;;;;-143.98;100.00;68091.63;6245533;23;20154;-87
2021/05/25 08:15:30;;;;;;;5.97;2.17;;;;;;;-143.98;100.00;68091.63;6220144;23;20094;-86
2021/05/25 08:20:56;;;;;;;5.95;1.90;;;;;;;-143.98;100.00;68091.63;6245518;23;20060;-85
2021/05/25 08:23:26;;;;;;;7.50;1.98;;;;;;;-143.98;100.00;68091.63;6246048;22;20028;-85
2021/05/25 08:29:37;;;;;;;3.03;1.45;;;;;;;-143.98;100.00;68091.63;6243735;23;20127;-86
2021/05/25 08:32:06;;;;;;;6.53;1.58;;;;;;;-143.98;100.00;68091.63;6245006;23;20227;-85
2021/05/25 08:34:36;;;;;;;4.80;1.73;;;;;;;-143.98;100.00;68091.63;6247178;23;20043;-86
2021/05/25 08:37:09;;;;;;;4.63;1.23;;;;;;;-143.98;100.00;68091.63;6224360;23;20082;-86
2021/05/25 08:39:36;;;;;;;4.85;1.50;;;;;;;-143.98;100.00;68091.63;6246151;23;20063;-84
2021/05/25 08:42:16;;;;;;;7.22;1.67;;;;;;;-143.98;100.00;68091.63;6225140;23;20089;-85
2021/05/25 08:45:11;;;;;;;7.43;1.73;;;;;;;-143.98;100.00;68091.63;6225375;23;20245;-84
2021/05/25 08:47:40;;;;;;;3.92;1.95;;;;;;;-143.98;100.00;68091.63;6247769;23;20032;-85
2021/05/25 08:50:13;;;;;;;10.60;1.85;;;;;;;-143.98;100.00;68091.63;6221940;23;20028;-86
2021/05/25 08:52:46;;;;;;;8.13;1.17;;;;;;;-143.98;100.00;68091.63;6244076;23;20024;-86
2021/05/25 08:55:21;;;;;;;4.95;1.20;;;;;;;-143.98;100.00;68091.63;6242361;23;20035;-85
2021/05/25 08:57:51;;;;;;;5.65;1.60;;;;;;;-143.98;100.00;68091.63;6219343;23;20424;-86
2021/05/25 09:00:20;;;;;;;6.32;1.17;;;;;;;-143.98;100.00;68091.63;6246005;23;20064;-84
2021/05/25 09:02:47;;;;;;;5.30;1.77;;;;;;;-143.98;100.00;68091.63;6218203;23;20024;-85
2021/05/25 09:05:18;;;;;;;7.13;2.05;;;;;;;-143.98;100.00;68091.63;6243120;23;20028;-85
2021/05/25 09:07:50;;;;;;;5.90;1.00;;;;;;;-143.98;100.00;68091.63;6253797;23;20032;-86
2021/05/25 09:10:22;;;;;;;4.93;1.23;;;;;;;-143.98;100.00;68091.63;6231375;23;20046;-85
2021/05/25 09:12:53;;;;;;;4.35;0.95;;;;;;;-143.98;100.00;68091.63;6229866;23;20039;-84
2021/05/25 09:15:38;;;;;;;3.25;1.00;;;;;;;-143.98;100.00;68091.63;6227961;23;20028;-86
2021/05/25 09:18:34;;;;;;;4.35;1.02;;;;;;;-143.98;100.00;68091.63;6227232;23;20297;-86
2021/05/25 09:21:03;;;;;;;5.95;1.58;;;;;;;-143.98;100.00;68091.63;6232635;23;20032;-85
2021/05/25 09:23:33;;;;;;;5.82;1.10;;;;;;;-143.98;100.00;68091.63;6234982;23;20024;-86
2021/05/25 09:26:35;;;;;;;3.97;1.10;;;;;;;-143.98;100.00;68091.63;6262024;22;20077;-86
2021/05/25 09:29:08;;;;;;;3.78;1.20;;;;;;;-143.98;100.00;68091.63;6255200;23;20027;-86
2021/05/25 09:31:35;;;;;;;5.07;1.40;;;;;;;-143.98;100.00;68091.63;6228776;23;20032;-86
2021/05/25 09:34:16;;;;;;;6.68;1.40;;;;;;;-143.98;100.00;68091.63;6252666;23;20034;-85
2021/05/25 09:37:05;;;;;;;3.25;1.27;;;;;;;-143.98;100.00;68091.63;6225939;23;20034;-85
2021/05/25 09:39:35;;;;;;;4.63;1.17;;;;;;;-143.98;100.00;68091.63;6246847;23;20024;-86
2021/05/25 09:42:04;;;;;;;4.35;1.40;;;;;;;-143.98;100.00;68091.63;6247553;22;20064;-86
2021/05/25 09:44:33;;;;;;;4.28;1.20;;;;;;;-143.98;100.00;68091.63;6246193;23;20031;-86
2021/05/25 09:47:02;;;;;;;8.00;0.90;;;;;;;-143.98;100.00;68091.63;6222931;23;20020;-86
2021/05/25 09:49:29;;;;;;;5.95;1.27;;;;;;;-143.98;100.00;68091.63;6222525;23;20088;-86
2021/05/25 09:52:11;;;;;;;2.25;1.10;;;;;;;-143.98;100.00;68091.63;6233467;22;20024;-87
2021/05/25 09:54:40;;;;;;;4.45;0.95;;;;;;;-143.98;100.00;68091.63;6237040;23;20012;-86
2021/05/25 09:57:08;;;;;;;3.80;1.13;;;;;;;-143.98;100.00;68091.63;6237678;22;20012;-87
2021/05/25 09:59:39;;;;;;;2.97;1.10;;;;;;;-143.98;100.00;68091.63;6262255;22;20020;-87
2021/05/25 10:02:25;;;;;;;5.90;0.98;;;;;;;-143.98;100.00;68091.63;6224768;23;20028;-85
2021/05/25 10:04:59;;;;;;;3.33;1.10;;;;;;;-143.98;100.00;68091.63;6226755;23;20217;-87
2021/05/25 10:07:27;;;;;;;3.22;0.88;;;;;;;-143.98;100.00;68091.63;6251709;23;20351;-87
2021/05/25 10:10:09;;;;;;;4.72;1.10;;;;;;;-143.98;100.00;68091.63;6221723;23;20024;-87
2021/05/25 10:12:42;;;;;;;2.88;0.98;;;;;;;-143.98;100.00;68091.63;6247610;23;20028;-87
2021/05/25 10:15:12;;;;;;;3.58;1.10;;;;;;;-143.98;100.00;68091.63;6245726;23;20035;-87
2021/05/25 10:17:55;;;;;;;3.17;0.80;;;;;;;-143.98;100.00;68091.63;6248649;22;20040;-87
2021/05/25 10:20:25;;;;;;;7.25;1.00;;;;;;;-143.98;100.00;68091.63;6248061;22;20032;-88
2021/05/25 10:22:52;;;;;;;3.42;1.20;;;;;;;-143.98;100.00;68091.63;6247546;23;20024;-87
2021/05/25 10:25:22;;;;;;;8.25;1.10;;;;;;;-143.98;100.00;68091.63;6220366;23;20298;-87
2021/05/25 10:27:49;;;;;;;6.40;1.17;;;;;;;-143.98;100.00;68091.63;6219539;23;20048;-88
2021/05/25 10:30:26;;;;;;;2.80;1.00;;;;;;;-143.98;100.00;68091.63;6247547;23;20381;-86
2021/05/25 10:33:09;;;;;;;2.35;1.02;;;;;;;-143.98;100.00;68091.63;6249863;23;20039;-87
2021/05/25 10:35:49;;;;;;;3.10;1.10;;;;;;;-143.98;100.00;68091.63;6248807;23;20028;-87
2021/05/25 10:38:19;;;;;;;3.75;1.23;;;;;;;-143.98;100.00;68091.63;6246622;23;20080;-87
2021/05/25 10:40:50;;;;;;;3.00;1.10;;;;;;;-143.98;100.00;68091.63;6218425;23;20036;-86
2021/05/25 10:44:14;;;;;;;2.55;1.10;;;;;;;-143.98;100.00;68091.63;6223090;23;20055;-89
2021/05/25 10:46:41;;;;;;;2.50;1.02;;;;;;;-143.98;100.00;68091.63;6256372;23;20390;-87
2021/05/25 10:49:25;;;;;;;2.55;1.33;;;;;;;-143.98;100.00;68091.63;6249706;23;20055;-86
2021/05/25 10:52:08;;;;;;;3.85;1.40;;;;;;;-143.98;100.00;68091.63;6227584;23;20186;-87
2021/05/25 10:54:46;;;;;;;5.80;1.05;;;;;;;-143.98;100.00;68091.63;6252901;23;20187;-87
2021/05/25 10:57:48;;;;;;;4.43;1.00;;;;;;;-143.98;100.00;68091.63;6245327;23;20027;-86
2021/05/25 11:00:18;;;;;;;5.18;1.35;;;;;;;-143.98;100.00;68091.63;6218625;23;20043;-87
2021/05/25 11:02:48;;;;;;;2.17;1.10;;;;;;;-143.98;100.00;68091.63;6247875;23;20131;-90
2021/05/25 11:05:27;;;;;;;5.80;1.20;;;;;;;-143.98;100.00;68091.63;6223714;23;20270;-86
2021/05/25 11:08:17;;;;;;;2.90;1.08;;;;;;;-143.98;100.00;68091.63;6250146;23;20251;-86
2021/05/25 11:10:57;;;;;;;5.38;1.25;;;;;;;-143.98;100.00;68091.63;6163128;23;20025;-86
2021/05/25 11:13:28;;;;;;;2.60;1.25;;;;;;;-143.98;100.00;68091.63;6267261;22;20032;-87
2021/05/25 11:16:15;;;;;;;6.53;1.20;;;;;;;-143.98;100.00;68091.63;6222198;23;20095;-88
2021/05/25 11:19:09;;;;;;;3.25;1.33;;;;;;;-143.98;100.00;68091.63;6249389;23;20020;-86
2021/05/25 11:24:59;;;;;;;5.45;1.80;;;;;;;-143.98;100.00;68091.63;6248014;22;20389;-88
2021/05/25 11:27:34;;;;;;;2.80;1.20;;;;;;;-143.98;100.00;68091.63;6256313;23;20039;-87
2021/05/25 11:30:09;;;;;;;4.00;1.50;;;;;;;-143.98;100.00;68091.63;6254600;23;20194;-88
2021/05/25 11:32:45;;;;;;;4.32;1.42;;;;;;;-143.98;100.00;68091.63;6249849;23;20416;-87
2021/05/25 11:35:17;;;;;;;4.10;1.55;;;;;;;-143.98;100.00;68091.63;6225172;23;20031;-86
2021/05/25 11:38:05;;;;;;;4.85;2.03;;;;;;;-143.98;100.00;68091.63;6235010;23;20025;-88